首页
METAR-TAF:

METAR-TAF

机场 :

墨西哥城贝尼托·胡亚雷斯国际机场

墨西哥城, 墨西哥

纬度: 19-26N, 经度: 099-06W, 海拔: 2238米

当前天气观测

该预报发布于31分钟前的22:41 UTC
风速19节,风向东转东北
温度 22°C
湿度 43%
气压 1021 hPa
能見度: 16.1公里
多云层高于2000英尺, 积雨云.
阴天层高于8000英尺

METAR: MMMX 232241Z 07019KT 10SM BKN020CB OVC080 22/09 A3016 TEMPO 3SM TSRA RMK 8/36/ HZY PCPN NE AND SSW

时间: 18:12 (23:12 UTC)

预报

该预报发布于1小时和54分钟前的21:18 UTC
预报有效从23日的 21点(UTC)到 24日的 24点(UTC)
风速5节,风向西北
能見度: 9.7公里
多云层高于2500英尺
短暂存在
从 23日的 22点(UTC)到 24日的 02点(UTC)
能見度: 4.8公里
多云层高于1500英尺, 积雨云.
雷暴, 雨
从 24日的 0200点(UTC)
风速5节,风向东北
能見度: 8.0公里
多云层高于2000英尺, 积雨云.
阴天层高于8000英尺
雷暴, 雨
从 24日的 0600点(UTC)
风速节,风向
能見度: 8.0公里
多云层高于1500英尺
阴天层高于8000英尺
从 24日的 0900点(UTC)
风速节,风向
能見度: 8.0公里
散云层高于1500英尺
从 24日的 1900点(UTC)
风速10节,风向东北
能見度: 10公里
多云层高于2500英尺
几率 40%
从 24日的 21点(UTC)到 24日的 24点(UTC)
能見度: 6.4公里
多云层高于2000英尺, 积雨云.
雷暴, 雨

TAF: MMMX 232118Z 2321/2424 32005KT 6SM BKN025 TX24/2321Z TN13/2412Z TEMPO 2322/2402 3SM TSRA BKN015CB FM240200 04005KT 5SM TSRA BKN020CB OVC080 FM240600 00000KT 5SM RA BKN015 OVC080 FM240900 00000KT 5SM HZ SCT015 FM241900 04010KT P6SM BKN025 PROB40 2421/2424 4SM TSRA BKN020CB

超过4000个机场的气象观测和天气预报(METAR&TAF报告)。

可查询的气象台以黄色和红色小点在地图上表示。

将鼠标移到小点上方,可查看气象台名称。

然后点击查看天气观测和预报。

如需切换地图:点击带黑十字的绿色按钮放大地图;点击带横线的绿色按钮缩小地图;或者点击绿色箭头查看邻近地区的地图。


METAR-TAF: